createdAt,value
2022-07-26T00:01:05.876Z,100.00
2022-07-26T00:03:33.722Z,100.00
2022-07-26T00:06:02.354Z,100.00
2022-07-26T00:08:38.216Z,100.00
2022-07-26T00:11:07.245Z,100.00
2022-07-26T00:13:35.898Z,100.00
2022-07-26T00:16:05.761Z,100.00
2022-07-26T00:18:34.372Z,100.00
2022-07-26T00:21:02.562Z,100.00
2022-07-26T00:23:30.998Z,100.00
2022-07-26T00:26:03.097Z,100.00
2022-07-26T00:28:30.927Z,100.00
2022-07-26T00:30:59.888Z,100.00
2022-07-26T00:33:28.621Z,100.00
2022-07-26T00:35:59.890Z,100.00
2022-07-26T00:38:32.142Z,100.00
2022-07-26T00:41:01.190Z,100.00
2022-07-26T00:43:30.686Z,100.00
2022-07-26T00:45:58.736Z,100.00
2022-07-26T00:48:27.594Z,100.00
2022-07-26T00:50:58.332Z,100.00
2022-07-26T00:53:30.211Z,100.00
2022-07-26T00:55:58.862Z,100.00
2022-07-26T00:58:26.684Z,100.00
2022-07-26T01:00:54.833Z,100.00
2022-07-26T01:03:22.609Z,100.00
2022-07-26T01:05:51.016Z,100.00
2022-07-26T01:08:18.807Z,100.00
2022-07-26T01:10:46.824Z,100.00
2022-07-26T01:13:22.807Z,100.00
2022-07-26T01:15:50.978Z,100.00
2022-07-26T01:18:19.809Z,100.00
2022-07-26T01:20:48.846Z,100.00
2022-07-26T01:23:17.801Z,100.00
2022-07-26T01:25:46.077Z,100.00
2022-07-26T01:28:19.994Z,100.00
2022-07-26T01:30:49.668Z,100.00
2022-07-26T01:33:17.421Z,100.00
2022-07-26T01:35:45.785Z,100.00
2022-07-26T01:38:17.242Z,100.00
2022-07-26T01:40:45.350Z,100.00
2022-07-26T01:43:12.930Z,100.00
2022-07-26T01:45:41.069Z,100.00
2022-07-26T01:48:08.891Z,100.00
2022-07-26T01:50:37.749Z,100.00
2022-07-26T01:53:06.373Z,100.00
2022-07-26T01:55:36.387Z,100.00
2022-07-26T01:58:06.834Z,100.00
2022-07-26T02:00:35.116Z,100.00
2022-07-26T02:03:03.124Z,100.00
2022-07-26T02:05:31.837Z,100.00
2022-07-26T02:08:00.023Z,100.00
2022-07-26T02:10:47.837Z,100.00
2022-07-26T02:13:15.761Z,100.00
2022-07-26T02:15:43.471Z,100.00
2022-07-26T02:18:11.142Z,100.00
2022-07-26T02:20:38.600Z,100.00
2022-07-26T02:23:07.244Z,100.00
2022-07-26T02:25:34.950Z,100.00
2022-07-26T02:28:02.798Z,100.00
2022-07-26T02:30:30.817Z,100.00
2022-07-26T02:32:58.489Z,100.00
2022-07-26T02:35:26.270Z,100.00
2022-07-26T02:37:54.270Z,100.00
2022-07-26T02:40:25.631Z,100.00
2022-07-26T02:42:53.399Z,100.00
2022-07-26T02:49:47.815Z,100.00
2022-07-26T02:52:34.177Z,100.00
2022-07-26T02:55:25.362Z,100.00
2022-07-26T02:58:05.945Z,100.00
2022-07-26T03:00:34.873Z,100.00
2022-07-26T03:03:03.672Z,100.00
2022-07-26T03:05:31.363Z,100.00
2022-07-26T03:08:00.952Z,100.00
2022-07-26T03:10:28.623Z,100.00
2022-07-26T03:12:56.240Z,100.00
2022-07-26T03:15:24.040Z,100.00
2022-07-26T03:17:51.713Z,100.00
2022-07-26T03:20:19.098Z,100.00
2022-07-26T03:23:12.241Z,100.00
2022-07-26T03:25:49.164Z,99.13
2022-07-26T03:28:37.200Z,95.83
2022-07-26T03:32:13.108Z,93.89
2022-07-26T03:35:38.934Z,87.21
2022-07-26T03:38:36.091Z,83.32
2022-07-26T03:41:07.602Z,84.32
2022-07-26T03:43:36.366Z,81.58
2022-07-26T03:46:03.832Z,79.80
2022-07-26T03:51:35.317Z,74.70
2022-07-26T03:54:02.622Z,73.75
2022-07-26T03:56:31.900Z,72.28
2022-07-26T03:59:01.833Z,70.43
2022-07-26T04:04:32.311Z,66.54
2022-07-26T04:07:03.172Z,65.91
2022-07-26T04:09:31.227Z,66.57
2022-07-26T04:11:58.620Z,66.26
2022-07-26T04:14:26.186Z,66.73
2022-07-26T04:16:53.468Z,66.31
2022-07-26T04:19:20.713Z,64.65
2022-07-26T04:21:48.064Z,64.04
2022-07-26T04:24:15.300Z,65.01
2022-07-26T04:26:42.540Z,63.31
2022-07-26T04:29:12.822Z,60.91
2022-07-26T04:31:41.251Z,61.44
2022-07-26T04:34:08.747Z,61.70
2022-07-26T04:36:36.425Z,58.40
2022-07-26T04:39:03.900Z,56.79
2022-07-26T04:41:31.213Z,57.39
2022-07-26T04:43:58.628Z,57.83
2022-07-26T04:46:25.957Z,58.64
2022-07-26T04:48:53.616Z,58.17
2022-07-26T04:51:23.737Z,58.04
2022-07-26T04:53:51.449Z,56.98
2022-07-26T04:56:18.820Z,57.25
2022-07-26T04:58:50.500Z,54.82
2022-07-26T05:01:30.507Z,52.15
2022-07-26T05:03:57.883Z,50.27
2022-07-26T05:06:25.172Z,49.20
2022-07-26T05:08:52.724Z,47.70
2022-07-26T05:11:19.987Z,46.21
2022-07-26T05:13:47.272Z,44.99
2022-07-26T05:16:14.585Z,42.80
2022-07-26T05:18:46.060Z,42.13
2022-07-26T05:21:17.534Z,41.55
2022-07-26T05:23:44.834Z,40.72
2022-07-26T05:26:12.597Z,40.25
2022-07-26T05:28:40.679Z,39.88
2022-07-26T05:31:08.927Z,41.18
2022-07-26T05:33:36.620Z,40.22
2022-07-26T05:36:10.138Z,39.24
2022-07-26T05:38:38.103Z,39.35
2022-07-26T05:41:05.745Z,39.81
2022-07-26T05:43:41.428Z,42.31
2022-07-26T05:46:13.161Z,47.14
2022-07-26T05:48:40.780Z,50.55
2022-07-26T05:51:09.509Z,52.36
2022-07-26T05:53:37.418Z,55.37
2022-07-26T05:56:07.480Z,53.49
2022-07-26T05:58:34.782Z,48.75
2022-07-26T06:01:02.158Z,45.52
2022-07-26T06:03:30.232Z,43.12
2022-07-26T06:05:59.133Z,42.97
2022-07-26T06:08:27.185Z,44.06
2022-07-26T06:10:58.606Z,46.26
2022-07-26T06:13:25.979Z,48.41
2022-07-26T06:15:54.535Z,49.71
2022-07-26T06:18:22.290Z,50.67
2022-07-26T06:20:50.275Z,51.53
2022-07-26T06:23:17.547Z,53.96
2022-07-26T06:26:01.149Z,56.91
2022-07-26T06:28:34.281Z,60.30
2022-07-26T06:31:01.679Z,63.13
2022-07-26T06:33:34.536Z,64.38
2022-07-26T06:36:09.066Z,62.99
2022-07-26T06:38:36.872Z,62.30
2022-07-26T06:41:07.892Z,61.75
2022-07-26T07:23:17.326Z,57.39
2022-07-26T07:25:47.630Z,57.29
2022-07-26T07:28:16.685Z,56.42
2022-07-26T07:30:47.682Z,56.70
2022-07-26T07:33:22.409Z,58.56
2022-07-26T07:35:52.252Z,60.30
2022-07-26T07:38:19.720Z,61.75
2022-07-26T07:40:50.176Z,62.99
2022-07-26T07:43:20.730Z,63.81
2022-07-26T07:45:48.811Z,63.38
2022-07-26T07:48:16.694Z,61.78
2022-07-26T07:50:44.523Z,60.51
2022-07-26T07:53:14.668Z,60.61
2022-07-26T07:55:46.704Z,61.39
2022-07-26T07:58:19.001Z,61.10
2022-07-26T08:00:48.074Z,59.38
2022-07-26T08:03:17.910Z,58.68
2022-07-26T08:05:50.021Z,58.56
2022-07-26T08:08:22.052Z,59.16
2022-07-26T08:10:52.550Z,59.11
2022-07-26T08:13:22.836Z,58.87
2022-07-26T08:15:55.851Z,58.76
2022-07-26T08:18:34.216Z,59.27
2022-07-26T08:21:04.324Z,59.73
2022-07-26T08:23:34.720Z,59.21
2022-07-26T08:26:17.252Z,58.46
2022-07-26T08:29:13.937Z,58.96
2022-07-26T08:31:44.011Z,58.24
2022-07-26T08:34:21.291Z,58.06
2022-07-26T08:37:14.305Z,57.16
2022-07-26T08:39:37.478Z,56.59
2022-07-26T08:42:13.465Z,56.44
2022-07-26T08:44:50.236Z,53.85
2022-07-26T08:47:37.550Z,52.36
2022-07-26T08:50:09.675Z,51.81
2022-07-26T08:52:49.953Z,52.35
2022-07-26T08:55:21.324Z,50.28
2022-07-26T08:57:49.929Z,48.82
2022-07-26T09:00:34.442Z,48.95
2022-07-26T09:03:06.621Z,49.35
2022-07-26T09:05:37.569Z,46.89
2022-07-26T09:08:27.601Z,46.56
2022-07-26T09:10:57.258Z,46.74
2022-07-26T09:13:26.066Z,47.75
2022-07-26T09:16:11.028Z,49.24
2022-07-26T09:18:40.253Z,49.83
2022-07-26T09:21:26.684Z,53.60
2022-07-26T09:23:55.869Z,57.92
2022-07-26T09:26:27.366Z,61.51
2022-07-26T09:29:12.882Z,65.52
2022-07-26T09:31:44.495Z,68.15
2022-07-26T09:34:26.215Z,70.64
2022-07-26T09:36:54.701Z,68.33
2022-07-26T09:39:33.448Z,71.75
2022-07-26T09:42:28.459Z,75.41
2022-07-26T09:44:57.456Z,76.76
2022-07-26T09:47:40.019Z,84.69
2022-07-26T09:50:20.905Z,84.39
2022-07-26T09:53:09.876Z,84.63
2022-07-26T09:55:47.043Z,85.89
2022-07-26T09:58:16.226Z,88.62
2022-07-26T10:00:46.242Z,88.88
2022-07-26T10:03:16.757Z,90.16
2022-07-26T10:05:59.708Z,90.56
2022-07-26T10:08:27.867Z,94.94
2022-07-26T10:11:05.283Z,93.74
2022-07-26T10:13:33.539Z,97.18
2022-07-26T10:16:04.618Z,95.59
2022-07-26T10:18:39.032Z,94.24
2022-07-26T10:21:29.368Z,89.50
2022-07-26T10:24:01.578Z,88.44
2022-07-26T10:26:32.126Z,89.94
2022-07-26T10:29:17.865Z,89.98
2022-07-26T10:31:49.214Z,89.06
2022-07-26T10:34:34.620Z,89.91
2022-07-26T10:37:07.304Z,89.47
2022-07-26T10:39:35.635Z,89.81
2022-07-26T10:42:08.521Z,89.03
2022-07-26T10:44:45.463Z,89.54
2022-07-26T10:47:18.917Z,89.29
2022-07-26T10:49:59.664Z,88.94
2022-07-26T10:52:29.425Z,89.78
2022-07-26T10:54:57.195Z,90.55
2022-07-26T10:57:42.929Z,90.06
2022-07-26T11:00:17.436Z,89.90
2022-07-26T11:02:49.068Z,88.62
2022-07-26T11:05:17.652Z,88.00
2022-07-26T11:08:08.326Z,90.86
2022-07-26T11:10:42.362Z,93.08
2022-07-26T11:13:21.483Z,90.76
2022-07-26T11:15:58.528Z,90.05
2022-07-26T11:18:37.898Z,89.74
2022-07-26T11:21:13.540Z,88.56
2022-07-26T11:23:45.544Z,87.29
2022-07-26T11:26:15.946Z,86.98
2022-07-26T11:29:06.675Z,87.67
2022-07-26T11:31:55.772Z,86.33
2022-07-26T11:34:34.575Z,84.84
2022-07-26T11:37:07.250Z,80.55
2022-07-26T11:39:39.354Z,78.19
2022-07-26T11:42:16.481Z,75.98
2022-07-26T11:44:47.234Z,75.30
2022-07-26T11:47:20.409Z,72.15
2022-07-26T11:50:11.654Z,68.42
2022-07-26T11:52:40.089Z,67.79
2022-07-26T11:55:08.421Z,66.31
2022-07-26T11:57:40.327Z,66.43
2022-07-26T12:00:08.649Z,66.16
2022-07-26T12:02:36.875Z,66.65
2022-07-26T12:05:18.425Z,66.31
2022-07-26T12:07:59.115Z,64.92
2022-07-26T12:10:27.746Z,66.37
2022-07-26T12:13:12.027Z,67.74
2022-07-26T12:15:52.875Z,66.04
2022-07-26T12:18:32.813Z,66.33
2022-07-26T12:34:20.079Z,67.07
2022-07-26T12:37:41.806Z,66.70
2022-07-26T12:40:26.154Z,65.84
2022-07-26T13:08:22.545Z,54.92
2022-07-26T13:10:55.571Z,55.84
2022-07-26T13:13:30.413Z,58.04
2022-07-26T13:16:00.569Z,58.19
2022-07-26T13:28:22.120Z,58.19
2022-07-26T13:30:53.177Z,58.06
2022-07-26T13:36:07.896Z,59.57
2022-07-26T13:38:38.147Z,59.50
2022-07-26T13:41:09.098Z,58.93
2022-07-26T13:46:38.245Z,58.19
2022-07-26T13:52:05.884Z,58.91
2022-07-26T13:54:48.493Z,59.15
2022-07-26T14:03:14.103Z,58.90
2022-07-26T14:05:50.413Z,59.55
2022-07-26T14:08:20.562Z,60.87
2022-07-26T14:10:59.396Z,61.50
2022-07-26T14:13:27.956Z,61.19
2022-07-26T14:16:13.495Z,61.94
2022-07-26T14:18:46.340Z,63.91
2022-07-26T14:21:23.868Z,64.81
2022-07-26T14:24:09.903Z,66.13
2022-07-26T14:58:21.285Z,76.89
2022-07-26T15:00:53.265Z,75.98
2022-07-26T15:03:26.120Z,75.78
2022-07-26T15:09:10.627Z,68.16
2022-07-26T15:11:49.394Z,67.66
2022-07-26T15:20:06.557Z,68.51
2022-07-26T15:22:35.707Z,68.50
2022-07-26T15:25:05.100Z,67.57
2022-07-26T15:27:35.678Z,66.27
2022-07-26T15:30:13.658Z,64.21
2022-07-26T15:32:45.511Z,64.05
2022-07-26T15:35:23.109Z,64.40
2022-07-26T15:37:57.418Z,65.27
2022-07-26T15:40:31.505Z,64.50
2022-07-26T15:45:48.470Z,65.77
2022-07-26T15:54:46.946Z,66.81
2022-07-26T17:30:17.133Z,95.64
2022-07-26T17:35:29.547Z,98.14
2022-07-26T17:37:58.514Z,98.75
2022-07-26T17:43:42.711Z,100.00
2022-07-26T17:46:14.164Z,100.00
2022-07-26T17:55:55.636Z,100.00
2022-07-26T17:58:24.143Z,100.00
2022-07-26T18:00:55.128Z,100.00
2022-07-26T18:03:23.494Z,100.00
2022-07-26T18:05:52.895Z,100.00
2022-07-26T18:08:23.074Z,100.00
2022-07-26T18:10:59.141Z,100.00
2022-07-26T18:13:29.410Z,100.00
2022-07-26T18:16:02.857Z,100.00
2022-07-26T18:18:34.617Z,100.00
2022-07-26T18:21:04.989Z,100.00
2022-07-26T18:23:32.423Z,100.00
2022-07-26T18:29:42.070Z,100.00
2022-07-26T18:32:09.533Z,100.00
2022-07-26T18:34:36.840Z,100.00
2022-07-26T18:37:08.122Z,100.00
2022-07-26T18:39:36.584Z,100.00
2022-07-26T18:42:07.989Z,100.00
2022-07-26T18:44:41.209Z,100.00
2022-07-26T18:47:09.884Z,100.00
2022-07-26T18:49:38.496Z,100.00
2022-07-26T18:52:09.021Z,100.00
2022-07-26T18:54:37.207Z,100.00
2022-07-26T18:57:05.702Z,100.00
2022-07-26T18:59:34.984Z,100.00
2022-07-26T19:02:05.352Z,100.00
2022-07-26T19:04:34.127Z,100.00
2022-07-26T19:07:12.550Z,100.00
2022-07-26T19:09:46.105Z,100.00
2022-07-26T19:15:08.521Z,100.00
2022-07-26T19:33:14.452Z,100.00
2022-07-26T19:38:40.624Z,100.00
2022-07-26T19:44:23.803Z,100.00
2022-07-26T19:47:01.104Z,100.00
2022-07-26T19:58:26.981Z,100.00
2022-07-26T20:01:35.356Z,100.00
2022-07-26T20:04:10.679Z,100.00
2022-07-26T20:06:42.574Z,100.00
2022-07-26T20:09:10.918Z,100.00
2022-07-26T20:11:58.036Z,100.00
2022-07-26T20:14:28.335Z,100.00
2022-07-26T20:16:58.616Z,100.00
2022-07-26T20:19:31.262Z,100.00
2022-07-26T20:22:04.862Z,100.00
2022-07-26T20:24:41.027Z,100.00
2022-07-26T20:27:21.233Z,100.00
2022-07-26T20:29:54.187Z,100.00
2022-07-26T20:32:23.671Z,100.00
2022-07-26T20:34:52.223Z,100.00
2022-07-26T20:37:20.483Z,100.00
2022-07-26T20:39:51.504Z,100.00
2022-07-26T20:42:21.602Z,100.00
2022-07-26T20:44:52.961Z,100.00
2022-07-26T20:47:20.674Z,100.00
2022-07-26T20:49:48.932Z,100.00
2022-07-26T20:52:17.014Z,100.00
2022-07-26T20:54:47.599Z,100.00
2022-07-26T20:57:15.255Z,100.00
2022-07-26T20:59:43.761Z,100.00
2022-07-26T21:02:11.421Z,100.00
2022-07-26T21:04:40.352Z,100.00
2022-07-26T21:07:09.252Z,100.00
2022-07-26T21:09:39.527Z,100.00
2022-07-26T21:12:09.071Z,100.00
2022-07-26T21:14:36.797Z,100.00
2022-07-26T21:17:09.317Z,100.00
2022-07-26T21:19:38.808Z,100.00
2022-07-26T21:22:06.726Z,100.00
2022-07-26T21:24:35.226Z,100.00
2022-07-26T21:27:04.916Z,100.00
2022-07-26T21:29:38.117Z,100.00
2022-07-26T21:32:07.306Z,100.00
2022-07-26T21:34:35.528Z,100.00
2022-07-26T21:37:04.749Z,100.00
2022-07-26T21:39:36.654Z,100.00
2022-07-26T21:42:04.675Z,100.00
2022-07-26T21:44:33.028Z,100.00
2022-07-26T21:47:00.709Z,100.00
2022-07-26T21:49:28.455Z,100.00
2022-07-26T21:51:57.116Z,100.00
2022-07-26T21:54:24.695Z,100.00
2022-07-26T21:56:54.043Z,100.00
2022-07-26T21:59:23.323Z,100.00
2022-07-26T22:02:00.107Z,100.00
2022-07-26T22:04:28.713Z,100.00
2022-07-26T22:06:56.688Z,100.00
2022-07-26T22:09:26.842Z,100.00
2022-07-26T22:11:54.680Z,100.00
2022-07-26T22:14:25.628Z,100.00
2022-07-26T22:16:53.983Z,100.00
2022-07-26T22:19:21.558Z,100.00
2022-07-26T22:21:49.598Z,100.00
2022-07-26T22:24:17.500Z,100.00
2022-07-26T22:26:45.318Z,100.00
2022-07-26T22:29:13.281Z,100.00
2022-07-26T22:31:41.331Z,100.00
2022-07-26T22:34:09.640Z,100.00
2022-07-26T22:36:39.012Z,100.00
2022-07-26T22:39:11.477Z,100.00
2022-07-26T22:42:05.210Z,100.00
2022-07-26T22:44:29.267Z,100.00
2022-07-26T22:46:57.157Z,100.00
2022-07-26T22:49:24.784Z,100.00
2022-07-26T22:51:52.569Z,100.00
2022-07-26T22:54:20.126Z,100.00
2022-07-26T22:56:49.188Z,100.00
2022-07-26T22:59:17.247Z,100.00
2022-07-26T23:01:47.314Z,100.00
2022-07-26T23:04:19.867Z,100.00
2022-07-26T23:06:54.936Z,100.00
2022-07-26T23:09:25.085Z,100.00
2022-07-26T23:11:54.342Z,100.00
2022-07-26T23:14:22.580Z,100.00
2022-07-26T23:16:50.937Z,100.00
2022-07-26T23:19:21.438Z,100.00
2022-07-26T23:21:49.744Z,100.00
2022-07-26T23:24:17.281Z,100.00
2022-07-26T23:26:45.221Z,100.00
2022-07-26T23:29:13.002Z,100.00
2022-07-26T23:31:42.293Z,100.00
2022-07-26T23:34:09.898Z,100.00
2022-07-26T23:36:38.379Z,100.00
2022-07-26T23:39:06.164Z,100.00
2022-07-26T23:41:33.816Z,100.00
2022-07-26T23:44:01.831Z,100.00
2022-07-26T23:46:31.221Z,100.00
2022-07-26T23:48:59.114Z,100.00
2022-07-26T23:51:27.340Z,100.00
2022-07-26T23:53:55.133Z,100.00
2022-07-26T23:56:23.302Z,100.00
2022-07-26T23:58:51.186Z,100.00
